Aeroporto :
LOGIN :

Iscrizione | Disclaimer

   EN    FR    IT 

 










Sommario :    VFR   VFR Marginale   IFR   IFR Intensivo   IFR Molto Intensivo
Visibilità : 
Base nubi : 
>= 8 km
>= 3000ft
5 / 8 km
1000 / 3000 ft
1500m / 5 km
500 / 1000 ft
800 / 1500m
200 / 500 ft
< 800m
< 200 ft
Simboli :   Temporali  Nebbia  Neve Forte  Precipitazioni Forti  Vento > 20 kt
SIGMETs :   Varie  Temporali  Ghiacco  Turbolenza  Onda orograficha  Ceneri Vulcaniche






- Altitudine del aeroporto : 490 ft
- Codice IATA : CHQ


LGSA - Ioannis Daskalogiannis

ULTIMO METAR :
  • 171820Z 00000KT 9999 FEW020 BKN030 10/08 Q1021

METARs OBSOLETI :
  • 171750Z 00000KT 9999 FEW020 BKN030 10/08 Q1021
  • 171720Z 00000KT 9999 FEW020 BKN030 11/09 Q1021
  • 171650Z 00000KT 9999 FEW020 BKN030 11/09 Q1021
  • 171620Z 00000KT 9999 FEW020 BKN030 12/09 Q1021
  • 171550Z 34004KT 9999 FEW020 BKN030 12/09 Q1021

TAF TAF LGSA
Valido dal 17 a 18 ore il 18 a 18 ore UTC


171700Z 1718/1818 VRB05KT 9999 FEW018 SCT030
TEMPO 1718/1806 BKN025



MetMap, La meteo Aeronautica in un colpo d'occhio ! - Copyright ORBIFLY Dicembre 2007 - Disclaimer

ORBIFLY MET'MAP TEAM :

Programmazione e sviluppo : Alexandra Zaïnal
Concezione : Baudouin d'Aumeries
Aiuto per la programmazione : Marc-Olivier Méhu
Supporto tecnico e logistico : Manuel Goepfert
Aiuto per la traduzione : Arnaldo La Scala

Contatto : metmap@orbifly.com




FONTI E CREDITI :

   NOAA